createdAt,value
2018-09-13T00:00:42.494Z,16.45
2018-09-13T00:03:06.915Z,16.41
2018-09-13T00:04:06.890Z,16.40
2018-09-13T00:05:06.764Z,16.42
2018-09-13T00:06:06.801Z,16.37
2018-09-13T00:07:06.629Z,16.51
2018-09-13T00:08:06.616Z,16.34
2018-09-13T00:09:06.449Z,16.44
2018-09-13T00:10:06.410Z,16.37
2018-09-13T00:11:06.282Z,16.37
2018-09-13T00:12:06.347Z,16.36
2018-09-13T00:13:06.135Z,16.36
2018-09-13T00:14:06.126Z,16.27
2018-09-13T00:15:06.038Z,16.25
2018-09-13T00:16:05.944Z,16.26
2018-09-13T00:17:05.812Z,16.23
2018-09-13T00:18:05.979Z,16.23
2018-09-13T00:19:05.681Z,16.27
2018-09-13T00:20:05.673Z,16.18
2018-09-13T00:21:05.497Z,16.16
2018-09-13T00:22:05.465Z,16.22
2018-09-13T00:23:05.334Z,16.25
2018-09-13T00:24:05.313Z,16.17
2018-09-13T00:25:05.164Z,16.17
2018-09-13T00:26:05.188Z,16.10
2018-09-13T00:27:05.005Z,16.08
2018-09-13T00:28:04.992Z,16.10
2018-09-13T00:29:04.867Z,16.13
2018-09-13T00:31:46.934Z,16.06
2018-09-13T00:32:46.903Z,16.11
2018-09-13T00:33:46.770Z,16.18
2018-09-13T00:34:47.807Z,16.06
2018-09-13T00:35:46.628Z,16.10
2018-09-13T00:36:46.629Z,16.10
2018-09-13T00:37:46.447Z,16.17
2018-09-13T00:40:28.460Z,16.11
2018-09-13T00:41:28.432Z,16.10
2018-09-13T00:42:28.273Z,15.98
2018-09-13T00:43:28.283Z,16.11
2018-09-13T00:44:28.114Z,16.10
2018-09-13T00:45:28.155Z,16.01
2018-09-13T00:46:27.952Z,16.04
2018-09-13T00:47:27.954Z,16.10
2018-09-13T00:48:27.888Z,16.06
2018-09-13T00:49:27.769Z,15.96
2018-09-13T00:50:27.638Z,15.88
2018-09-13T00:51:27.680Z,15.98
2018-09-13T00:52:27.477Z,15.89
2018-09-13T00:55:09.960Z,15.86
2018-09-13T00:56:09.896Z,15.96
2018-09-13T00:57:09.783Z,15.84
2018-09-13T00:58:09.800Z,15.84
2018-09-13T00:59:09.655Z,15.78
2018-09-13T01:00:09.610Z,15.78
2018-09-13T01:01:09.476Z,15.88
2018-09-13T01:02:09.420Z,15.86
2018-09-13T01:04:33.960Z,15.88
2018-09-13T01:05:33.907Z,15.89
2018-09-13T01:06:33.787Z,15.88
2018-09-13T01:07:33.827Z,15.88
2018-09-13T01:08:33.626Z,15.86
2018-09-13T01:09:33.661Z,15.81
2018-09-13T01:10:33.454Z,15.86
2018-09-13T01:13:15.451Z,15.85
2018-09-13T01:14:15.473Z,15.81
2018-09-13T01:15:15.306Z,15.80
2018-09-13T01:16:15.247Z,15.77
2018-09-13T01:17:15.132Z,15.78
2018-09-13T01:18:15.178Z,15.78
2018-09-13T01:19:14.966Z,15.80
2018-09-13T01:20:15.011Z,15.84
2018-09-13T01:21:14.819Z,15.74
2018-09-13T01:22:14.781Z,15.71
2018-09-13T01:23:14.678Z,15.70
2018-09-13T01:24:14.684Z,15.68
2018-09-13T01:25:14.488Z,15.66
2018-09-13T01:26:14.533Z,15.67
2018-09-13T01:27:14.327Z,15.64
2018-09-13T01:28:14.316Z,15.56
2018-09-13T01:29:14.179Z,15.58
2018-09-13T01:30:14.463Z,15.67
2018-09-13T01:31:14.014Z,15.60
2018-09-13T01:32:14.027Z,15.64
2018-09-13T01:33:13.844Z,15.64
2018-09-13T01:34:13.845Z,15.60
2018-09-13T01:35:13.678Z,15.56
2018-09-13T01:36:13.688Z,15.59
2018-09-13T01:37:13.535Z,15.70
2018-09-13T01:38:13.552Z,15.58
2018-09-13T01:39:13.462Z,15.70
2018-09-13T01:41:55.480Z,15.66
2018-09-13T01:42:55.458Z,15.55
2018-09-13T01:43:55.281Z,15.55
2018-09-13T01:44:55.264Z,15.62
2018-09-13T01:45:55.137Z,15.52
2018-09-13T01:46:56.132Z,15.56
2018-09-13T01:47:54.969Z,15.58
2018-09-13T01:48:54.987Z,15.60
2018-09-13T01:49:54.802Z,15.55
2018-09-13T01:50:54.798Z,15.48
2018-09-13T01:51:54.668Z,15.44
2018-09-13T01:52:55.669Z,15.62
2018-09-13T01:53:54.487Z,15.67
2018-09-13T01:54:54.519Z,15.56
2018-09-13T01:55:54.349Z,15.58
2018-09-13T01:56:54.359Z,15.56
2018-09-13T01:57:54.175Z,15.59
2018-09-13T01:58:54.137Z,15.60
2018-09-13T01:59:54.000Z,15.46
2018-09-13T02:01:25.547Z,15.44
2018-09-13T02:01:53.977Z,15.46
2018-09-13T02:02:53.760Z,15.51
2018-09-13T02:03:53.768Z,15.44
2018-09-13T02:04:53.600Z,15.53
2018-09-13T02:05:53.656Z,15.46
2018-09-13T02:06:53.473Z,15.53
2018-09-13T02:07:53.502Z,15.49
2018-09-13T02:08:53.354Z,15.37
2018-09-13T02:09:53.293Z,15.37
2018-09-13T02:10:53.121Z,15.35
2018-09-13T02:11:53.296Z,15.49
2018-09-13T02:12:52.953Z,15.49
2018-09-13T02:13:52.942Z,15.56
2018-09-13T02:14:52.801Z,15.56
2018-09-13T02:15:52.810Z,15.53
2018-09-13T02:16:52.640Z,15.56
2018-09-13T02:17:53.691Z,15.46
2018-09-13T02:18:52.480Z,15.46
2018-09-13T02:19:52.425Z,15.48
2018-09-13T02:20:52.312Z,15.53
2018-09-13T02:23:34.495Z,15.46
2018-09-13T02:26:16.466Z,15.43
2018-09-13T02:27:16.433Z,15.48
2018-09-13T02:28:16.311Z,15.51
2018-09-13T02:29:16.277Z,15.38
2018-09-13T02:30:16.151Z,15.35
2018-09-13T02:31:16.157Z,15.38
2018-09-13T02:32:15.979Z,15.44
2018-09-13T02:33:15.993Z,15.44
2018-09-13T02:34:15.826Z,15.51
2018-09-13T02:35:15.789Z,15.37
2018-09-13T02:36:15.652Z,15.43
2018-09-13T02:38:57.978Z,15.43
2018-09-13T02:39:58.094Z,15.38
2018-09-13T02:40:57.805Z,15.35
2018-09-13T02:43:40.022Z,15.34
2018-09-13T02:44:39.994Z,15.41
2018-09-13T02:45:39.800Z,15.38
2018-09-13T02:46:39.804Z,15.35
2018-09-13T02:47:39.651Z,15.38
2018-09-13T02:48:40.674Z,15.33
2018-09-13T02:49:39.488Z,15.35
2018-09-13T02:52:21.466Z,15.35
2018-09-13T02:53:21.625Z,15.41
2018-09-13T02:54:21.336Z,15.34
2018-09-13T02:55:21.379Z,15.34
2018-09-13T02:56:21.181Z,15.38
2018-09-13T02:57:21.143Z,15.44
2018-09-13T02:58:20.987Z,15.53
2018-09-13T03:01:31.650Z,15.40
2018-09-13T03:02:28.402Z,15.37
2018-09-13T03:03:28.336Z,15.37
2018-09-13T03:04:30.739Z,15.40
2018-09-13T03:05:28.184Z,15.38
2018-09-13T03:08:14.049Z,15.46
2018-09-13T03:09:13.975Z,15.41
2018-09-13T03:10:13.825Z,15.40
2018-09-13T03:11:13.809Z,15.28
2018-09-13T03:12:13.651Z,15.35
2018-09-13T03:13:13.676Z,15.28
2018-09-13T03:14:13.499Z,15.38
2018-09-13T03:15:13.488Z,15.33
2018-09-13T03:16:13.362Z,15.33
2018-09-13T03:17:13.291Z,15.38
2018-09-13T03:18:13.188Z,15.34
2018-09-13T03:19:13.195Z,15.49
2018-09-13T03:20:13.015Z,15.38
2018-09-13T03:21:13.037Z,15.38
2018-09-13T03:22:12.853Z,15.43
2018-09-13T03:23:12.829Z,15.52
2018-09-13T03:24:12.747Z,15.37
2018-09-13T03:25:12.730Z,15.48
2018-09-13T03:26:12.557Z,15.56
2018-09-13T03:27:12.564Z,15.38
2018-09-13T03:28:12.367Z,15.35
2018-09-13T03:29:12.352Z,15.38
2018-09-13T03:30:12.217Z,15.37
2018-09-13T03:31:12.259Z,15.41
2018-09-13T03:32:12.085Z,15.31
2018-09-13T03:33:12.061Z,15.30
2018-09-13T03:34:11.888Z,15.35
2018-09-13T03:35:11.876Z,15.34
2018-09-13T03:36:11.730Z,15.30
2018-09-13T03:37:11.713Z,15.37
2018-09-13T03:38:11.574Z,15.31
2018-09-13T03:39:11.589Z,15.33
2018-09-13T03:40:11.409Z,15.37
2018-09-13T03:42:53.491Z,15.35
2018-09-13T03:43:53.494Z,15.40
2018-09-13T03:44:53.308Z,15.33
2018-09-13T03:45:53.308Z,15.30
2018-09-13T03:46:53.188Z,15.38
2018-09-13T03:47:53.119Z,15.33
2018-09-13T03:48:53.003Z,15.33
2018-09-13T03:51:34.980Z,15.30
2018-09-13T03:52:35.049Z,15.34
2018-09-13T03:53:34.836Z,15.31
2018-09-13T03:56:16.993Z,15.35
2018-09-13T03:57:16.976Z,15.38
2018-09-13T03:58:16.832Z,15.33
2018-09-13T03:59:16.846Z,15.37
2018-09-13T04:00:16.668Z,15.33
2018-09-13T04:01:16.649Z,15.37
2018-09-13T04:02:16.580Z,15.40
2018-09-13T04:03:16.531Z,15.41
2018-09-13T04:04:16.351Z,15.28
2018-09-13T04:05:16.366Z,15.35
2018-09-13T04:06:16.188Z,15.28
2018-09-13T04:07:16.174Z,15.35
2018-09-13T04:09:40.484Z,15.38
2018-09-13T04:10:40.552Z,15.30
2018-09-13T04:11:40.324Z,15.28
2018-09-13T04:12:40.315Z,15.40
2018-09-13T04:13:40.179Z,15.30
2018-09-13T04:24:38.456Z,15.34
2018-09-13T04:27:20.489Z,15.37
2018-09-13T04:28:20.560Z,15.30
2018-09-13T04:29:20.330Z,15.35
2018-09-13T04:30:20.325Z,15.41
2018-09-13T04:31:20.168Z,15.34
2018-09-13T04:32:20.132Z,15.46
2018-09-13T04:33:20.034Z,15.34
2018-09-13T04:34:20.049Z,15.46
2018-09-13T04:35:19.848Z,15.38
2018-09-13T04:36:19.853Z,15.43
2018-09-13T04:37:19.685Z,15.41
2018-09-13T04:38:19.692Z,15.43
2018-09-13T04:39:19.559Z,15.46
2018-09-13T04:40:19.573Z,15.51
2018-09-13T04:41:19.369Z,15.33
2018-09-13T04:42:19.385Z,15.33
2018-09-13T04:43:19.207Z,15.41
2018-09-13T04:44:19.239Z,15.40
2018-09-13T04:45:19.051Z,15.34
2018-09-13T04:46:19.005Z,15.38
2018-09-13T04:47:18.896Z,15.37
2018-09-13T04:50:01.013Z,15.34
2018-09-13T04:51:01.010Z,15.37
2018-09-13T04:52:00.853Z,15.34
2018-09-13T04:53:00.839Z,15.35
2018-09-13T04:54:00.674Z,15.40
2018-09-13T04:55:00.667Z,15.43
2018-09-13T04:56:00.514Z,15.35
2018-09-13T04:57:00.535Z,15.40
2018-09-13T04:58:00.350Z,15.40
2018-09-13T04:59:00.345Z,15.44
2018-09-13T05:00:00.227Z,15.46
2018-09-13T05:01:00.158Z,15.35
2018-09-13T05:02:00.034Z,15.48
2018-09-13T05:02:59.979Z,15.48
2018-09-13T05:03:59.873Z,15.43
2018-09-13T05:06:42.066Z,15.44
2018-09-13T05:08:02.914Z,15.53
2018-09-13T05:08:41.845Z,15.41
2018-09-13T05:09:41.997Z,15.43
2018-09-13T05:11:02.796Z,15.37
2018-09-13T05:11:41.613Z,15.38
2018-09-13T05:14:23.509Z,15.40
2018-09-13T05:15:23.535Z,15.41
2018-09-13T05:16:23.350Z,15.53
2018-09-13T05:17:23.322Z,15.48
2018-09-13T05:18:23.192Z,15.56
2018-09-13T05:19:23.222Z,15.51
2018-09-13T05:20:23.065Z,15.46
2018-09-13T05:21:23.019Z,15.43
2018-09-13T05:22:22.872Z,15.49
2018-09-13T05:23:22.844Z,15.56
2018-09-13T05:24:22.758Z,15.53
2018-09-13T05:25:22.747Z,15.56
2018-09-13T05:26:22.568Z,15.49
2018-09-13T05:27:22.554Z,15.43
2018-09-13T05:28:22.424Z,15.48
2018-09-13T05:29:22.366Z,15.56
2018-09-13T05:30:22.268Z,15.56
2018-09-13T05:31:22.199Z,15.60
2018-09-13T05:32:22.061Z,15.62
2018-09-13T05:34:46.512Z,15.53
2018-09-13T05:35:47.519Z,15.43
2018-09-13T05:36:46.365Z,15.51
2018-09-13T05:37:46.390Z,15.38
2018-09-13T05:38:46.298Z,15.51
2018-09-13T05:39:46.186Z,15.34
2018-09-13T05:40:46.037Z,15.40
2018-09-13T05:41:46.044Z,15.34
2018-09-13T05:42:45.876Z,15.35
2018-09-13T05:43:45.897Z,15.35
2018-09-13T05:44:45.802Z,15.35
2018-09-13T05:45:45.708Z,15.43
2018-09-13T05:46:45.579Z,15.41
2018-09-13T05:49:27.527Z,15.41
2018-09-13T05:50:27.520Z,15.28
2018-09-13T05:51:27.399Z,15.38
2018-09-13T06:17:49.650Z,15.33
2018-09-13T06:18:49.655Z,15.27
2018-09-13T06:19:49.547Z,15.22
2018-09-13T06:22:31.532Z,15.33
2018-09-13T06:23:31.570Z,15.41
2018-09-13T06:24:31.397Z,15.44
2018-09-13T06:25:31.346Z,15.40
2018-09-13T06:26:31.220Z,15.40
2018-09-13T06:27:31.263Z,15.35
2018-09-13T06:28:31.074Z,15.40
2018-09-13T06:29:31.189Z,15.38
2018-09-13T06:30:30.916Z,15.35
2018-09-13T06:31:30.866Z,15.35
2018-09-13T06:32:30.732Z,15.34
2018-09-13T06:33:30.732Z,15.43
2018-09-13T06:34:30.632Z,15.49
2018-09-13T06:35:30.597Z,15.51
2018-09-13T06:36:30.475Z,15.46
2018-09-13T06:37:30.390Z,15.33
2018-09-13T06:38:30.268Z,15.37
2018-09-13T06:39:30.211Z,15.41
2018-09-13T06:40:30.087Z,15.37
2018-09-13T06:41:30.107Z,15.40
2018-09-13T06:42:30.065Z,15.51
2018-09-13T06:43:29.962Z,15.38
2018-09-13T06:44:29.754Z,15.55
2018-09-13T06:45:29.725Z,15.53
2018-09-13T06:46:29.599Z,15.49
2018-09-13T06:47:29.543Z,15.55
2018-09-13T06:48:29.480Z,15.58
2018-09-13T06:49:29.432Z,15.58
2018-09-13T06:50:29.273Z,15.64
2018-09-13T06:51:29.220Z,15.46
2018-09-13T06:52:29.127Z,15.49
2018-09-13T06:55:11.055Z,15.48
2018-09-13T06:57:53.039Z,15.52
2018-09-13T06:58:53.068Z,15.55
2018-09-13T06:59:52.898Z,15.73
2018-09-13T07:00:52.882Z,15.68
2018-09-13T07:01:52.733Z,15.77
2018-09-13T07:04:34.544Z,15.68
2018-09-13T07:05:34.610Z,15.80
2018-09-13T07:06:34.370Z,15.78
2018-09-13T07:09:16.630Z,16.03
2018-09-13T07:10:16.519Z,16.04
2018-09-13T07:11:16.389Z,16.07
2018-09-13T07:13:58.549Z,15.92
2018-09-13T07:14:59.572Z,15.99
2018-09-13T07:15:58.379Z,16.07
2018-09-13T07:18:40.547Z,16.13
2018-09-13T07:21:22.563Z,15.98
2018-09-13T07:22:22.534Z,15.95
2018-09-13T07:23:22.387Z,15.92
2018-09-13T07:24:22.424Z,15.88
2018-09-13T07:25:22.242Z,15.99
2018-09-13T07:26:22.287Z,16.06
2018-09-13T07:27:22.091Z,16.03
2018-09-13T07:28:22.029Z,16.03
2018-09-13T07:29:21.944Z,15.98
2018-09-13T07:30:21.937Z,15.99
2018-09-13T07:31:21.779Z,15.99
2018-09-13T07:32:21.745Z,15.96
2018-09-13T07:38:00.060Z,15.95
2018-09-13T07:39:00.094Z,16.01
2018-09-13T07:39:59.893Z,16.06
2018-09-13T07:42:42.359Z,16.08
2018-09-13T07:43:42.109Z,16.11
2018-09-13T07:44:41.892Z,16.17
2018-09-13T07:45:41.897Z,16.33
2018-09-13T07:46:41.771Z,16.44
2018-09-13T07:52:05.622Z,16.48
2018-09-13T07:53:05.495Z,16.40
2018-09-13T07:54:05.403Z,16.36
2018-09-13T07:55:05.429Z,16.37
2018-09-13T07:56:05.228Z,16.30
2018-09-13T07:57:05.266Z,16.14
2018-09-13T07:58:05.061Z,16.10
2018-09-13T07:59:05.064Z,16.14
2018-09-13T08:00:04.913Z,16.14
2018-09-13T08:01:04.940Z,16.17
2018-09-13T08:02:04.740Z,16.23
2018-09-13T08:03:04.850Z,16.16
2018-09-13T08:04:04.635Z,16.26
2018-09-13T08:05:04.533Z,16.33
2018-09-13T08:06:04.443Z,16.40
2018-09-13T08:08:46.584Z,16.41
2018-09-13T08:09:46.476Z,16.33
2018-09-13T08:10:46.406Z,16.42
2018-09-13T08:11:46.367Z,16.47
2018-09-13T08:12:46.245Z,16.54
2018-09-13T08:37:08.119Z,16.81
2018-09-13T08:38:07.946Z,16.88
2018-09-13T08:39:07.879Z,17.03
2018-09-13T08:40:08.817Z,17.03
2018-09-13T08:41:07.716Z,16.85
2018-09-13T08:43:49.564Z,16.82
2018-09-13T08:44:49.598Z,16.85
2018-09-13T08:45:49.694Z,16.96
2018-09-13T08:46:49.378Z,16.80
2018-09-13T08:47:49.246Z,16.85
2018-09-13T08:48:49.172Z,16.77
2018-09-13T08:49:49.115Z,16.91
2018-09-13T08:50:49.039Z,17.07
2018-09-13T08:51:48.942Z,16.98
2018-09-13T08:52:48.874Z,16.91
2018-09-13T08:53:48.768Z,16.91
2018-09-13T08:54:48.714Z,16.84
2018-09-13T08:55:48.647Z,16.85
2018-09-13T08:56:48.578Z,17.00
2018-09-13T08:57:48.443Z,16.87
2018-09-13T09:00:30.596Z,16.91
2018-09-13T09:01:30.505Z,16.91
2018-09-13T09:02:30.465Z,16.92
2018-09-13T09:03:30.332Z,16.92
2018-09-13T09:04:30.246Z,17.05
2018-09-13T09:05:30.200Z,17.02
2018-09-13T09:06:30.138Z,17.06
2018-09-13T09:07:30.045Z,17.05
2018-09-13T09:08:29.934Z,16.98
2018-09-13T09:09:29.863Z,17.03
2018-09-13T09:10:29.768Z,17.05
2018-09-13T09:11:29.711Z,17.09
2018-09-13T09:12:29.640Z,17.00
2018-09-13T09:13:29.549Z,17.05
2018-09-13T09:14:29.467Z,16.99
2018-09-13T09:15:29.388Z,17.07
2018-09-13T09:16:29.342Z,16.92
2018-09-13T09:17:29.263Z,16.85
2018-09-13T09:18:29.188Z,16.87
2018-09-13T09:19:29.053Z,16.96
2018-09-13T09:20:28.980Z,16.99
2018-09-13T09:21:28.899Z,17.17
2018-09-13T09:22:28.848Z,17.15
2018-09-13T09:23:28.773Z,17.21
2018-09-13T09:24:28.665Z,17.30
2018-09-13T09:25:28.586Z,17.28
2018-09-13T09:26:28.496Z,17.46
2018-09-13T09:27:28.438Z,17.57
2018-09-13T09:28:28.332Z,17.54
2018-09-13T09:29:28.389Z,17.47
2018-09-13T09:30:28.180Z,17.51
2018-09-13T09:31:28.133Z,17.36
2018-09-13T09:32:28.066Z,17.43
2018-09-13T09:35:10.193Z,17.40
2018-09-13T09:36:10.045Z,17.47
2018-09-13T09:37:09.958Z,17.49
2018-09-13T09:38:09.858Z,17.46
2018-09-13T09:39:09.781Z,17.49
2018-09-13T09:40:09.698Z,17.43
2018-09-13T09:41:09.597Z,17.58
2018-09-13T09:42:09.617Z,17.43
2018-09-13T09:43:09.453Z,17.47
2018-09-13T09:44:09.413Z,17.58
2018-09-13T09:45:09.299Z,17.57
2018-09-13T09:46:09.200Z,17.63
2018-09-13T09:47:09.156Z,17.71
2018-09-13T09:48:09.078Z,17.66
2018-09-13T09:49:08.982Z,17.87
2018-09-13T09:51:51.097Z,17.57
2018-09-13T09:52:52.071Z,17.32
2018-09-13T09:53:50.925Z,17.54
2018-09-13T09:54:50.873Z,17.60
2018-09-13T09:55:50.788Z,17.80
2018-09-13T09:56:50.736Z,17.84
2018-09-13T09:57:50.638Z,17.86
2018-09-13T09:58:50.548Z,17.96
2018-09-13T09:59:50.466Z,17.96
2018-09-13T10:02:32.609Z,17.63
2018-09-13T10:03:32.503Z,17.63
2018-09-13T10:04:32.464Z,17.63
2018-09-13T10:05:32.356Z,17.66
2018-09-13T10:07:57.136Z,17.81
2018-09-13T10:08:57.034Z,17.66
2018-09-13T10:09:56.929Z,17.83
2018-09-13T10:10:56.872Z,17.80
2018-09-13T10:11:56.787Z,17.79
2018-09-13T10:12:56.694Z,17.92
2018-09-13T10:13:56.633Z,17.84
2018-09-13T10:16:38.622Z,17.91
2018-09-13T10:17:38.554Z,17.92
2018-09-13T10:18:38.505Z,17.84
2018-09-13T10:20:38.294Z,18.07
2018-09-13T10:21:38.208Z,18.14
2018-09-13T10:22:38.123Z,18.19
2018-09-13T10:23:38.109Z,18.19
2018-09-13T10:24:37.986Z,18.34
2018-09-13T10:27:20.096Z,18.23
2018-09-13T10:28:20.047Z,18.23
2018-09-13T10:29:20.026Z,18.32
2018-09-13T10:30:19.877Z,17.95
2018-09-13T10:31:19.799Z,17.98
2018-09-13T10:34:01.609Z,18.41
2018-09-13T10:35:01.551Z,18.46
2018-09-13T10:36:01.427Z,18.42
2018-09-13T10:37:01.368Z,18.57
2018-09-13T10:38:01.288Z,18.82
2018-09-13T10:40:43.169Z,18.87
2018-09-13T10:42:04.034Z,18.78
2018-09-13T10:44:58.093Z,18.68
2018-09-13T10:45:58.039Z,18.71
2018-09-13T10:46:57.947Z,18.74
2018-09-13T10:47:57.871Z,18.62
2018-09-13T10:48:57.781Z,18.51
2018-09-13T10:49:57.731Z,18.72
2018-09-13T10:50:57.639Z,18.64
2018-09-13T10:51:57.631Z,18.78
2018-09-13T10:52:57.540Z,18.96
2018-09-13T10:55:39.860Z,19.21
2018-09-13T10:56:39.535Z,19.24
2018-09-13T10:57:39.456Z,19.24
2018-09-13T10:58:39.383Z,19.23
2018-09-13T10:59:39.304Z,19.24
2018-09-13T11:00:39.250Z,19.12
2018-09-13T11:01:39.135Z,19.15
2018-09-13T11:04:21.132Z,18.79
2018-09-13T11:05:21.059Z,18.65
2018-09-13T11:06:20.953Z,18.68
2018-09-13T11:07:20.867Z,18.72
2018-09-13T11:08:20.789Z,18.59
2018-09-13T11:09:20.715Z,18.31
2018-09-13T11:10:20.676Z,18.46
2018-09-13T11:11:20.570Z,18.35
2018-09-13T11:12:20.485Z,18.41
2018-09-13T11:15:02.609Z,18.65
2018-09-13T11:16:02.549Z,18.71
2018-09-13T11:17:02.442Z,18.83
2018-09-13T11:18:02.386Z,18.87
2018-09-13T11:19:02.291Z,18.86
2018-09-13T11:20:02.225Z,18.94
2018-09-13T11:21:02.158Z,19.01
2018-09-13T11:22:02.087Z,18.93
2018-09-13T11:23:01.990Z,19.12
2018-09-13T11:24:01.934Z,19.01
2018-09-13T11:25:01.812Z,19.10
2018-09-13T11:26:01.767Z,19.01
2018-09-13T11:27:01.694Z,19.07
2018-09-13T11:28:01.611Z,18.91
2018-09-13T11:29:01.503Z,18.93
2018-09-13T11:30:01.438Z,18.96
2018-09-13T11:31:01.436Z,18.97
2018-09-13T11:32:01.307Z,19.02
2018-09-13T11:33:01.218Z,18.96
2018-09-13T11:35:43.129Z,19.20
2018-09-13T11:36:44.075Z,19.21
2018-09-13T11:37:43.030Z,19.12
2018-09-13T11:38:42.905Z,18.90
2018-09-13T11:39:42.837Z,18.84
2018-09-13T11:42:24.631Z,19.10
2018-09-13T11:43:24.543Z,19.12
2018-09-13T11:44:24.453Z,19.15
2018-09-13T11:47:06.644Z,20.30
2018-09-13T11:48:06.568Z,20.64
2018-09-13T11:49:06.495Z,20.79
2018-09-13T11:51:48.620Z,21.22
2018-09-13T11:52:48.581Z,20.79
2018-09-13T11:53:48.469Z,21.05
2018-09-13T11:56:13.120Z,20.54
2018-09-13T11:57:13.054Z,20.71
2018-09-13T11:58:13.006Z,21.05
2018-09-13T12:00:55.138Z,20.58
2018-09-13T12:01:55.101Z,20.61
2018-09-13T12:02:54.995Z,20.60
2018-09-13T12:03:54.919Z,20.66
2018-09-13T12:04:54.825Z,20.68
2018-09-13T12:07:37.178Z,20.19
2018-09-13T12:08:37.083Z,20.25
2018-09-13T12:09:37.062Z,20.08
2018-09-13T12:10:36.918Z,19.97
2018-09-13T12:11:36.863Z,19.95
2018-09-13T12:14:18.650Z,19.92
2018-09-13T12:15:18.648Z,19.85
2018-09-13T12:20:10.181Z,19.57
2018-09-13T12:21:10.090Z,19.07
2018-09-13T12:22:10.026Z,19.09
2018-09-13T12:23:09.915Z,19.12
2018-09-13T12:24:09.867Z,19.17
2018-09-13T12:25:09.763Z,19.38
2018-09-13T12:26:09.695Z,19.57
2018-09-13T12:27:09.616Z,19.71
2018-09-13T12:29:51.684Z,20.22
2018-09-13T12:30:51.569Z,20.02
2018-09-13T12:31:51.475Z,20.13
2018-09-13T12:32:51.409Z,19.89
2018-09-13T12:58:14.730Z,20.19
2018-09-13T12:59:13.772Z,20.31
2018-09-13T13:00:13.545Z,20.48
2018-09-13T13:01:13.452Z,20.34
2018-09-13T13:02:13.391Z,20.42
2018-09-13T13:03:13.304Z,20.31
2018-09-13T13:04:13.232Z,20.10
2018-09-13T13:05:13.204Z,19.98
2018-09-13T13:06:13.077Z,19.94
2018-09-13T13:07:12.983Z,20.04
2018-09-13T13:08:12.910Z,19.90
2018-09-13T13:09:12.837Z,19.70
2018-09-13T13:10:13.771Z,19.52
2018-09-13T13:11:12.681Z,19.70
2018-09-13T13:12:12.591Z,19.79
2018-09-13T13:13:12.510Z,19.83
2018-09-13T13:14:12.437Z,19.83
2018-09-13T13:15:12.354Z,19.98
2018-09-13T13:16:12.324Z,20.22
2018-09-13T13:17:12.196Z,20.38
2018-09-13T13:18:12.112Z,20.57
2018-09-13T13:19:12.054Z,20.69
2018-09-13T13:20:11.972Z,20.78
2018-09-13T13:21:11.903Z,20.63
2018-09-13T13:23:54.181Z,20.97
2018-09-13T13:24:54.105Z,20.76
2018-09-13T13:25:54.023Z,20.98
2018-09-13T13:26:53.950Z,21.21
2018-09-13T13:27:53.852Z,21.21
2018-09-13T13:28:53.783Z,21.30
2018-09-13T13:29:53.713Z,21.21
2018-09-13T13:30:54.638Z,20.96
2018-09-13T13:31:53.592Z,20.79
2018-09-13T13:32:53.498Z,20.94
2018-09-13T13:33:53.410Z,20.87
2018-09-13T13:34:53.308Z,20.61
2018-09-13T13:35:53.225Z,20.64
2018-09-13T13:36:54.171Z,20.60
2018-09-13T13:37:53.074Z,20.57
2018-09-13T13:38:52.988Z,20.50
2018-09-13T13:39:52.929Z,20.37
2018-09-13T13:42:35.189Z,20.26
2018-09-13T13:45:17.187Z,20.22
2018-09-13T13:46:17.093Z,19.90
2018-09-13T13:47:17.022Z,19.80
2018-09-13T13:48:16.940Z,19.82
2018-09-13T13:49:16.861Z,19.78
2018-09-13T13:50:16.777Z,19.89
2018-09-13T13:51:16.693Z,19.94
2018-09-13T13:52:16.662Z,19.90
2018-09-13T13:53:16.530Z,20.13
2018-09-13T13:54:16.586Z,20.25
2018-09-13T13:55:16.387Z,20.33
2018-09-13T13:56:16.301Z,20.20
2018-09-13T13:57:16.248Z,19.94
2018-09-13T13:58:16.146Z,20.12
2018-09-13T13:59:16.083Z,20.17
2018-09-13T14:00:15.990Z,20.31
2018-09-13T14:01:15.910Z,20.37
2018-09-13T14:02:15.845Z,20.40
2018-09-13T14:03:15.758Z,20.35
2018-09-13T14:05:57.713Z,19.90
2018-09-13T14:06:57.600Z,19.89
2018-09-13T14:07:57.554Z,19.71
2018-09-13T14:08:57.463Z,19.60
2018-09-13T14:09:57.422Z,19.64
2018-09-13T14:12:39.197Z,19.57
2018-09-13T14:13:39.126Z,19.55
2018-09-13T14:14:39.007Z,19.43
2018-09-13T14:15:38.936Z,19.45
2018-09-13T14:16:38.850Z,19.52
2018-09-13T14:19:20.700Z,19.64
2018-09-13T14:20:20.642Z,19.75
2018-09-13T14:21:20.510Z,19.83
2018-09-13T14:24:44.705Z,19.45
2018-09-13T14:25:44.616Z,19.57
2018-09-13T14:26:44.515Z,19.64
2018-09-13T14:27:44.450Z,19.68
2018-09-13T14:28:45.371Z,19.72
2018-09-13T14:31:09.673Z,19.72
2018-09-13T14:32:09.600Z,19.67
2018-09-13T14:33:09.530Z,19.62
2018-09-13T14:34:09.489Z,19.76
2018-09-13T14:35:09.358Z,19.78
2018-09-13T14:36:09.274Z,19.90
2018-09-13T14:37:09.204Z,19.90
2018-09-13T14:38:09.124Z,19.95
2018-09-13T14:39:09.080Z,19.95
2018-09-13T14:40:09.005Z,19.94
2018-09-13T14:41:08.907Z,20.01
2018-09-13T14:42:08.817Z,20.05
2018-09-13T14:43:08.723Z,19.78
2018-09-13T14:44:08.668Z,20.02
2018-09-13T14:45:08.566Z,20.16
2018-09-13T14:47:50.682Z,20.46
2018-09-13T14:48:50.615Z,20.51
2018-09-13T14:49:50.537Z,20.64
2018-09-13T14:50:50.448Z,20.57
2018-09-13T14:51:50.358Z,20.72
2018-09-13T14:52:50.299Z,20.72
2018-09-13T14:53:50.200Z,20.76
2018-09-13T14:54:51.169Z,20.93
2018-09-13T14:55:50.051Z,21.03
2018-09-13T14:56:49.976Z,20.97
2018-09-13T14:57:49.893Z,21.00
2018-09-13T14:58:49.836Z,20.98
2018-09-13T14:59:49.772Z,21.15
2018-09-13T15:00:49.678Z,21.09
2018-09-13T15:01:49.584Z,21.08
2018-09-13T15:02:49.507Z,20.93
2018-09-13T15:03:49.428Z,20.75
2018-09-13T15:04:49.346Z,20.69
2018-09-13T15:08:37.204Z,20.42
2018-09-13T15:09:37.113Z,20.56
2018-09-13T15:10:37.073Z,20.50
2018-09-13T15:11:36.984Z,20.50
2018-09-13T15:12:36.931Z,20.57
2018-09-13T15:13:36.799Z,20.46
2018-09-13T15:14:36.776Z,20.46
2018-09-13T15:15:36.740Z,20.41
2018-09-13T15:16:36.581Z,20.22
2018-09-13T15:17:36.480Z,20.35
2018-09-13T15:18:36.411Z,20.35
2018-09-13T15:19:36.322Z,20.27
2018-09-13T15:20:36.273Z,20.23
2018-09-13T15:21:36.181Z,20.17
2018-09-13T15:22:36.089Z,20.15
2018-09-13T15:23:36.010Z,20.15
2018-09-13T15:24:35.990Z,20.12
2018-09-13T15:25:35.902Z,20.02
2018-09-13T15:26:35.788Z,19.95
2018-09-13T15:27:35.700Z,20.01
2018-09-13T15:28:35.625Z,20.01
2018-09-13T15:29:35.537Z,20.12
2018-09-13T15:30:35.501Z,20.13
2018-09-13T15:31:35.400Z,20.17
2018-09-13T15:34:17.211Z,20.17
2018-09-13T15:35:17.145Z,20.20
2018-09-13T15:36:17.068Z,20.23
2018-09-13T15:37:16.979Z,20.30
2018-09-13T15:38:16.890Z,20.08
2018-09-13T15:39:16.836Z,20.16
2018-09-13T15:40:16.741Z,20.12
2018-09-13T15:41:16.643Z,20.02
2018-09-13T15:42:16.570Z,19.92
2018-09-13T15:43:16.489Z,19.82
2018-09-13T15:44:16.406Z,19.85
2018-09-13T15:45:16.362Z,19.78
2018-09-13T15:46:16.271Z,19.92
2018-09-13T15:47:16.190Z,19.92
2018-09-13T15:48:16.093Z,19.95
2018-09-13T15:49:16.021Z,19.95
2018-09-13T15:50:15.945Z,20.05
2018-09-13T15:51:15.903Z,19.94
2018-09-13T15:52:15.778Z,19.76
2018-09-13T15:53:15.725Z,19.61
2018-09-13T15:54:15.626Z,19.60
2018-09-13T15:55:15.625Z,19.61
2018-09-13T15:56:15.499Z,19.67
2018-09-13T15:57:15.415Z,19.70
2018-09-13T15:58:15.338Z,19.72
2018-09-13T15:59:15.241Z,19.71
2018-09-13T16:00:15.151Z,19.79
2018-09-13T16:01:15.072Z,19.82
2018-09-13T16:02:15.020Z,19.76
2018-09-13T16:03:14.944Z,19.67
2018-09-13T16:04:14.843Z,19.70
2018-09-13T16:06:56.716Z,19.79
2018-09-13T16:07:56.644Z,19.86
2018-09-13T16:08:56.547Z,19.70
2018-09-13T16:09:56.479Z,19.75
2018-09-13T16:10:56.385Z,19.78
2018-09-13T16:11:56.324Z,19.90
2018-09-13T16:12:56.355Z,19.87
2018-09-13T16:13:56.163Z,19.70
2018-09-13T16:14:56.092Z,19.75
2018-09-13T16:17:38.241Z,19.62
2018-09-13T16:18:38.163Z,19.55
2018-09-13T16:19:38.048Z,19.67
2018-09-13T16:20:37.998Z,19.67
2018-09-13T16:21:37.906Z,19.67
2018-09-13T16:24:32.298Z,19.80
2018-09-13T16:25:32.136Z,19.76
2018-09-13T16:26:32.206Z,19.79
2018-09-13T16:29:14.256Z,19.49
2018-09-13T16:30:14.148Z,19.53
2018-09-13T16:31:14.076Z,19.47
2018-09-13T16:32:14.004Z,19.47